Grand Princess — ZCBU5 — position and weather

sailwx.info

Track history (hours):
 
Tides and Currents Weather Stations Pressure Air Temp Water Temp Dewpoint Dewpoint Depression Visibility Wind Speed Wind Dir Waves Ship Positions

Grand Princess

Operator: Princess Cruises

Last reported at 2017-Aug-20 11:00 UTC. Time now 2017-Aug-20 15:37 UTC.
Position N 57°18' W 133°48'.

Length 289.5 m; beam 36 m; draft 8.5 m.

Type: Passenger vessel. MMSI: 310327000.

Wind from 310 at 2 knots

Barometer 1015.3 mb
Air temperature 10.5 ° C
Visibility: greater than 5.4 NM
Dewpoint 9.5 ° C
Water temperature 11.0 ° C

Date/timePositionNaut miles runAvg speedWind from/ knotsBaromVisibWave heightAir tempDewpointWater temp
2017-Aug-20 11:00N 57°18' W 133°48'175 7.6 310 / 21015.3 5.4 10.5 9.511.0
2017-Aug-19 12:00N 54°48' W 131°06'7815.7 210 / 61020.210.8 12.511.612.0
2017-Aug-19 07:00N 53°30' W 130°54'24719.0 270 / 91020.110.8 14.010.213.0
2017-Aug-18 18:00N 49°36' W 128°48'12018.4 310 / 211022.110.8 16.0 8.117.0
2017-Aug-18 11:29N 47°41' W 127°56'2619.1
2017-Aug-18 10:09N 47°17' W 127°45'319.0
2017-Aug-18 10:00N 47°14' W 127°44'4513.3
2017-Aug-18 10:00N 47°18' W 127°42'1426.0 260 / 171021.910.8 16.515.718.0
2017-Aug-18 09:28N 47°05' W 127°39'1018.9
2017-Aug-18 08:58N 46°55' W 127°35'1018.9
2017-Aug-18 08:27N 46°46' W 127°31'919.1
2017-Aug-18 08:00N 46°38' W 127°27'1019.3
2017-Aug-18 07:30N 46°29' W 127°23'919.1
2017-Aug-18 07:00N 46°20' W 127°19'1514.3
2017-Aug-18 06:00N 46°06' W 127°12'2525.4 320 / 101023.710.8 19.014.715.0
2017-Aug-18 05:00N 45°42' W 127°00'211.1 330 / 201020.010.8 16.013.318.0
2017-Aug-18 04:50N 45°40' W 127°01'1232.0
2017-Aug-18 04:28N 45°29' W 126°56'6 9.8
2017-Aug-18 03:51N 45°24' W 126°53'718.6
2017-Aug-18 03:29N 45°17' W 126°51'918.5
2017-Aug-18 03:00N 45°09' W 126°46'9568.7
2017-Aug-18 03:00N 45°00' W 126°42'0 0.2 350 / 201023.010.8 18.013.619.0
2017-Aug-18 02:30N 44°60' W 126°42'918.2
2017-Aug-18 02:00N 44°51' W 126°39'1020.4
2017-Aug-18 01:30N 44°41' W 126°35'1020.3
2017-Aug-18 01:00N 44°32' W 126°30'1020.1
2017-Aug-18 00:30N 44°23' W 126°24'1220.3
2017-Aug-17 23:56N 44°12' W 126°18'920.3
2017-Aug-17 23:30N 44°04' W 126°13'1020.3
2017-Aug-17 23:00N 43°54' W 126°09'1120.3
2017-Aug-17 22:28N 43°43' W 126°08'920.1
2017-Aug-17 22:00N 43°34' W 126°05'1020.0
2017-Aug-17 21:30N 43°25' W 126°01'1020.1
2017-Aug-17 21:00N 43°15' W 125°57'1020.1
2017-Aug-17 20:28N 43°05' W 125°53'920.3
2017-Aug-17 20:00N 42°56' W 125°48'1220.2
2017-Aug-17 19:24N 42°44' W 125°44'2820.0
2017-Aug-17 18:00N 42°18' W 125°30'1918.7 010 / 351020.110.8 16.012.417.0
2017-Aug-17 16:57N 41°59' W 125°24'818.3
2017-Aug-17 16:30N 41°51' W 125°21'918.5
2017-Aug-17 16:00N 41°42' W 125°17'918.6
2017-Aug-17 15:30N 41°33' W 125°14'918.6
2017-Aug-17 15:00N 41°24' W 125°10'2019.8
2017-Aug-17 14:00N 41°06' W 125°00'11520.6 350 / 401015.3 5.4 14.013.114.0
2017-Aug-17 08:25N 39°17' W 124°12'819.6
2017-Aug-17 08:00N 39°10' W 124°09'1019.1
2017-Aug-17 07:30N 39°01' W 124°04'1019.0
2017-Aug-17 07:00N 38°53' W 123°58'1019.6
2017-Aug-17 06:30N 38°45' W 123°51'1019.5
2017-Aug-17 06:00N 38°37' W 123°44'1019.6
2017-Aug-17 05:30N 38°28' W 123°37'1019.1
2017-Aug-17 05:00N 38°20' W 123°30'918.3
2017-Aug-17 04:30N 38°13' W 123°23'612.1
2017-Aug-17 04:00N 38°08' W 123°19'510.2
2017-Aug-17 03:30N 38°04' W 123°15'510.4
2017-Aug-17 03:00N 38°00' W 123°10'510.2
2017-Aug-17 02:30N 37°57' W 123°05'510.6
2017-Aug-17 02:00N 37°54' W 122°59'141.1
2017-Aug-17 02:00N 37°54' W 123°00'611.3 210 / 61014.0 5.4 15.513.714.0
2017-Aug-17 01:30N 37°52' W 122°54'510.3
2017-Aug-17 01:00N 37°49' W 122°48'713.6
2017-Aug-17 00:30N 37°46' W 122°40'612.8
2017-Aug-17 00:00N 37°48' W 122°32'611.8
2017-Aug-16 23:31N 37°49' W 122°25'1 2.0
2017-Aug-16 22:59N 37°48' W 122°24'0 0.0
2017-Aug-16 22:29N 37°48' W 122°24'0 0.0
2017-Aug-16 21:58N 37°48' W 122°24'0 0.0
2017-Aug-16 21:25N 37°48' W 122°24'0 0.0
2017-Aug-16 20:55N 37°48' W 122°24'0 0.0
2017-Aug-16 20:28N 37°48' W 122°24'0 0.0
2017-Aug-16 19:57N 37°48' W 122°24'0 0.0
2017-Aug-16 19:30N 37°48' W 122°24'0 0.0
2017-Aug-16 19:00N 37°48' W 122°24'0 0.0
2017-Aug-16 18:27N 37°48' W 122°24'0 0.0
2017-Aug-16 17:57N 37°48' W 122°24'0 0.0
2017-Aug-16 17:26N 37°48' W 122°24'0 0.0
2017-Aug-16 16:59N 37°48' W 122°24'0 0.0
2017-Aug-16 16:29N 37°48' W 122°24'0 0.0
2017-Aug-16 15:59N 37°48' W 122°24'0 0.0
2017-Aug-16 15:29N 37°48' W 122°24'0 0.8
2017-Aug-16 15:00N 37°48' W 122°24'019.8 260 / 31014.510.8 15.011.318.0
2017-Aug-16 14:58N 37°48' W 122°24'0 0.0
2017-Aug-16 14:28N 37°48' W 122°24'0 0.0
2017-Aug-16 13:58N 37°48' W 122°24'0 0.3
2017-Aug-16 13:30N 37°49' W 122°24'1 2.2
2017-Aug-16 13:00N 37°49' W 122°25'612.5
2017-Aug-16 12:30N 37°47' W 122°33'715.0
2017-Aug-16 12:00N 37°46' W 122°42'510.2
2017-Aug-16 11:30N 37°47' W 122°48'510.1
2017-Aug-16 11:00N 37°50' W 122°54'510.1
2017-Aug-16 10:30N 37°52' W 122°59'5 9.8
2017-Aug-16 10:00N 37°55' W 123°05'8480.4
2017-Aug-16 10:00N 37°48' W 123°00'1225.6 330 / 221012.910.8 13.512.613.0
2017-Aug-16 09:30N 37°57' W 123°10'510.0
2017-Aug-16 09:00N 38°01' W 123°15'5 9.9
2017-Aug-16 08:30N 38°05' W 123°19'510.0
2017-Aug-16 08:00N 38°09' W 123°23'713.8
2017-Aug-16 07:31N 38°15' W 123°27'918.2
2017-Aug-16 07:00N 38°22' W 123°34'917.6
2017-Aug-16 06:31N 38°29' W 123°40'1019.5
2017-Aug-16 06:00N 38°38' W 123°47'1120.1
2017-Aug-16 05:27N 38°47' W 123°54'4719.0
2017-Aug-16 03:00N 39°30' W 124°18'19521.4 340 / 221012.110.8 14.012.212.0
2017-Aug-15 17:54N 42°42' W 124°57'921.8
2017-Aug-15 17:30N 42°51' W 124°57'1121.5
2017-Aug-15 17:00N 43°02' W 124°58'1021.3
2017-Aug-15 16:30N 43°12' W 124°59'1222.6
2017-Aug-15 16:00N 43°24' W 125°00'17374.1 360 / 131014.410.8 15.013.215.0
2017-Aug-15 15:57N 43°41' W 125°01'0 0.2
2017-Aug-15 15:08N 43°41' W 125°01'321.2
2017-Aug-15 15:00N 43°44' W 125°01'1021.2
2017-Aug-15 14:30N 43°55' W 125°02'1 2.6
2017-Aug-15 14:00N 43°54' W 125°00'1221030.8 010 / 131014.310.8 15.013.215.0
2017-Aug-15 13:59N 44°06' W 125°02'1021.3
2017-Aug-15 13:30N 44°16' W 125°03'1621.8
2017-Aug-15 12:46N 44°32' W 125°04'622.2
2017-Aug-15 12:30N 44°38' W 125°05'1121.8
2017-Aug-15 12:00N 44°49' W 125°05'1121.3
2017-Aug-15 11:30N 44°60' W 125°07'1021.3
2017-Aug-15 11:00N 45°10' W 125°08'42129153.1
2017-Aug-15 11:00N 45°18' W 135°06'420863.5 010 / 161013.810.8 15.512.818.0
2017-Aug-15 10:30N 45°21' W 125°08'1121.4
2017-Aug-15 10:00N 45°31' W 125°08'1121.5
2017-Aug-15 09:30N 45°42' W 125°08'1121.4
2017-Aug-15 09:00N 45°53' W 125°09'1521.5
2017-Aug-15 08:18N 46°08' W 125°11'621.5
2017-Aug-15 08:00N 46°14' W 125°11'1121.5
2017-Aug-15 07:30N 46°25' W 125°12'1121.5
2017-Aug-15 07:00N 46°35' W 125°13'1121.6
2017-Aug-15 06:30N 46°46' W 125°14'1121.3
2017-Aug-15 06:00N 46°57' W 125°15'1021.0
2017-Aug-15 05:30N 47°07' W 125°15'1220.9
2017-Aug-15 04:57N 47°19' W 125°16'920.4
2017-Aug-15 04:30N 47°28' W 125°17'1121.3
2017-Aug-15 04:00N 47°39' W 125°18'1020.1
2017-Aug-15 03:30N 47°49' W 125°18'1019.6
2017-Aug-15 03:00N 47°58' W 125°19'1019.3
2017-Aug-15 02:30N 48°08' W 125°15'1019.1
2017-Aug-15 02:00N 48°17' W 125°11'1019.3
2017-Aug-15 01:29N 48°26' W 125°05'817.3
2017-Aug-15 01:00N 48°31' W 124°55'1019.2
2017-Aug-15 00:30N 48°30' W 124°41'1019.3
2017-Aug-15 00:00N 48°26' W 124°27'1019.6
2017-Aug-14 23:30N 48°22' W 124°14'1019.7
2017-Aug-14 23:00N 48°19' W 123°60'14845.6
2017-Aug-14 23:00N 48°12' W 123°42'510.7 250 / 151014.510.8 16.010.312.0
2017-Aug-14 22:30N 48°17' W 123°45'1020.3
2017-Aug-14 22:00N 48°17' W 123°30'815.5
2017-Aug-14 21:31N 48°23' W 123°25'2 3.6
2017-Aug-14 20:59N 48°25' W 123°23'0 0.0
2017-Aug-14 20:29N 48°25' W 123°23'0 0.0
2017-Aug-14 19:59N 48°25' W 123°23'0 0.0
2017-Aug-14 19:29N 48°25' W 123°23'0 0.0
2017-Aug-14 18:59N 48°25' W 123°23'0 0.0
2017-Aug-14 18:28N 48°25' W 123°23'0 0.0
2017-Aug-14 17:58N 48°25' W 123°23'0 0.0
2017-Aug-14 17:28N 48°25' W 123°23'0 0.0
2017-Aug-14 16:58N 48°25' W 123°23'0 0.0
2017-Aug-14 16:30N 48°25' W 123°23'0 0.0
2017-Aug-14 16:00N 48°25' W 123°23'0 0.0
2017-Aug-14 15:30N 48°25' W 123°23'0 0.0
2017-Aug-14 14:57N 48°25' W 123°23'0 0.0
2017-Aug-14 14:30N 48°25' W 123°23'0 0.0
2017-Aug-14 13:59N 48°25' W 123°23'1 1.6
2017-Aug-14 13:31N 48°25' W 123°24'5 9.1
2017-Aug-14 13:00N 48°20' W 123°24'815.8
2017-Aug-14 12:30N 48°14' W 123°31'916.9
2017-Aug-14 12:00N 48°14' W 123°44'816.4
2017-Aug-14 11:30N 48°14' W 123°56'1019.4
2017-Aug-14 11:00N 48°18' W 124°10'919.1
2017-Aug-14 10:30N 48°22' W 124°23'918.5
2017-Aug-14 10:00N 48°26' W 124°35'917.8
2017-Aug-14 09:30N 48°29' W 124°48'1018.6
2017-Aug-14 08:59N 48°29' W 125°03'918.7
2017-Aug-14 08:30N 48°29' W 125°16'1019.2
2017-Aug-14 08:00N 48°32' W 125°30'1019.5
2017-Aug-14 07:30N 48°39' W 125°41'1020.5
2017-Aug-14 07:00N 48°45' W 125°53'1121.0
2017-Aug-14 06:30N 48°51' W 126°06'1121.2
2017-Aug-14 06:00N 48°58' W 126°19'6347.6
2017-Aug-14 06:00N 48°54' W 126°12'1734.2 290 / 15 10.8 13.511.614.0
2017-Aug-14 05:30N 49°04' W 126°32'5622.1
2017-Aug-14 03:00N 49°36' W 127°42'8621.5 300 / 121018.510.8 14.512.714.0
2017-Aug-13 23:00N 50°36' W 129°18'9716.2 270 / 121016.9 5.4 16.013.315.0
2017-Aug-13 17:00N 51°42' W 131°12'17217.2 250 / 191009.4 5.4 14.012.215.0
2017-Aug-13 07:00N 54°06' W 133°48'6716.9 230 / 21999.210.8 13.011.114.0
2017-Aug-13 03:00N 55°12' W 134°12'6616.6 130 / 15995.6 5.4 13.212.514.0
2017-Aug-12 23:00N 56°18' W 134°24'103 9.3 110 / 19997.9 2.2 13.013.011.0
2017-Aug-12 12:00N 58°00' W 134°00'7615.2 170 / 51005.5 5.4 13.012.110.0
2017-Aug-12 07:00N 59°06' W 135°12'6 0.3 130 / 211007.4 5.4 18.013.613.0
2017-Aug-11 11:00N 59°00' W 135°12'5313.2 350 / 81011.810.8 14.511.714.0
2017-Aug-11 07:00N 58°12' W 134°30'6 0.4 240 / 61017.510.8 14.512.711.0
2017-Aug-10 16:00N 58°12' W 134°18'5511.1 220 / 21017.510.8 14.512.711.0
2017-Aug-10 11:00N 57°18' W 133°54'   040 / 81016.010.8 15.011.311.0
Track history (hours):
 
Tides and Currents Weather Stations Pressure Air Temp Water Temp Dewpoint Dewpoint Depression Visibility Wind Speed Wind Dir Waves Ship Positions

Grand Princess

Operator: Princess Cruises

Last reported at 2017-Aug-20 11:00 UTC. Time now 2017-Aug-20 15:37 UTC.
Position N 57°18' W 133°48'.

Length 289.5 m; beam 36 m; draft 8.5 m.

Type: Passenger vessel. MMSI: 310327000.

Wind from 310 at 2 knots

Barometer 1015.3 mb
Air temperature 10.5 ° C
Visibility: greater than 5.4 NM
Dewpoint 9.5 ° C
Water temperature 11.0 ° C

Date/timePositionNaut miles runAvg speedWind from/ knotsBaromVisibWave heightAir tempDewpointWater temp
2017-Aug-20 11:00N 57°18' W 133°48'175 7.6 310 / 21015.3 5.4 10.5 9.511.0
2017-Aug-19 12:00N 54°48' W 131°06'7815.7 210 / 61020.210.8 12.511.612.0
2017-Aug-19 07:00N 53°30' W 130°54'24719.0 270 / 91020.110.8 14.010.213.0
2017-Aug-18 18:00N 49°36' W 128°48'12018.4 310 / 211022.110.8 16.0 8.117.0
2017-Aug-18 11:29N 47°41' W 127°56'2619.1
2017-Aug-18 10:09N 47°17' W 127°45'319.0
2017-Aug-18 10:00N 47°14' W 127°44'4513.3
2017-Aug-18 10:00N 47°18' W 127°42'1426.0 260 / 171021.910.8 16.515.718.0
2017-Aug-18 09:28N 47°05' W 127°39'1018.9
2017-Aug-18 08:58N 46°55' W 127°35'1018.9
2017-Aug-18 08:27N 46°46' W 127°31'919.1
2017-Aug-18 08:00N 46°38' W 127°27'1019.3
2017-Aug-18 07:30N 46°29' W 127°23'919.1
2017-Aug-18 07:00N 46°20' W 127°19'1514.3
2017-Aug-18 06:00N 46°06' W 127°12'2525.4 320 / 101023.710.8 19.014.715.0
2017-Aug-18 05:00N 45°42' W 127°00'211.1 330 / 201020.010.8 16.013.318.0
2017-Aug-18 04:50N 45°40' W 127°01'1232.0
2017-Aug-18 04:28N 45°29' W 126°56'6 9.8
2017-Aug-18 03:51N 45°24' W 126°53'718.6
2017-Aug-18 03:29N 45°17' W 126°51'918.5
2017-Aug-18 03:00N 45°09' W 126°46'9568.7
2017-Aug-18 03:00N 45°00' W 126°42'0 0.2 350 / 201023.010.8 18.013.619.0
2017-Aug-18 02:30N 44°60' W 126°42'918.2
2017-Aug-18 02:00N 44°51' W 126°39'1020.4
2017-Aug-18 01:30N 44°41' W 126°35'1020.3
2017-Aug-18 01:00N 44°32' W 126°30'1020.1
2017-Aug-18 00:30N 44°23' W 126°24'1220.3
2017-Aug-17 23:56N 44°12' W 126°18'920.3
2017-Aug-17 23:30N 44°04' W 126°13'1020.3
2017-Aug-17 23:00N 43°54' W 126°09'1120.3
2017-Aug-17 22:28N 43°43' W 126°08'920.1
2017-Aug-17 22:00N 43°34' W 126°05'1020.0
2017-Aug-17 21:30N 43°25' W 126°01'1020.1
2017-Aug-17 21:00N 43°15' W 125°57'1020.1
2017-Aug-17 20:28N 43°05' W 125°53'920.3
2017-Aug-17 20:00N 42°56' W 125°48'1220.2
2017-Aug-17 19:24N 42°44' W 125°44'2820.0
2017-Aug-17 18:00N 42°18' W 125°30'1918.7 010 / 351020.110.8 16.012.417.0
2017-Aug-17 16:57N 41°59' W 125°24'818.3
2017-Aug-17 16:30N 41°51' W 125°21'918.5
2017-Aug-17 16:00N 41°42' W 125°17'918.6
2017-Aug-17 15:30N 41°33' W 125°14'918.6
2017-Aug-17 15:00N 41°24' W 125°10'2019.8
2017-Aug-17 14:00N 41°06' W 125°00'11520.6 350 / 401015.3 5.4 14.013.114.0
2017-Aug-17 08:25N 39°17' W 124°12'819.6
2017-Aug-17 08:00N 39°10' W 124°09'1019.1
2017-Aug-17 07:30N 39°01' W 124°04'1019.0
2017-Aug-17 07:00N 38°53' W 123°58'1019.6
2017-Aug-17 06:30N 38°45' W 123°51'1019.5
2017-Aug-17 06:00N 38°37' W 123°44'1019.6
2017-Aug-17 05:30N 38°28' W 123°37'1019.1
2017-Aug-17 05:00N 38°20' W 123°30'918.3
2017-Aug-17 04:30N 38°13' W 123°23'612.1
2017-Aug-17 04:00N 38°08' W 123°19'510.2
2017-Aug-17 03:30N 38°04' W 123°15'510.4
2017-Aug-17 03:00N 38°00' W 123°10'510.2
2017-Aug-17 02:30N 37°57' W 123°05'510.6
2017-Aug-17 02:00N 37°54' W 122°59'141.1
2017-Aug-17 02:00N 37°54' W 123°00'611.3 210 / 61014.0 5.4 15.513.714.0
2017-Aug-17 01:30N 37°52' W 122°54'510.3
2017-Aug-17 01:00N 37°49' W 122°48'713.6
2017-Aug-17 00:30N 37°46' W 122°40'612.8
2017-Aug-17 00:00N 37°48' W 122°32'611.8
2017-Aug-16 23:31N 37°49' W 122°25'1 2.0
2017-Aug-16 22:59N 37°48' W 122°24'0 0.0
2017-Aug-16 22:29N 37°48' W 122°24'0 0.0
2017-Aug-16 21:58N 37°48' W 122°24'0 0.0
2017-Aug-16 21:25N 37°48' W 122°24'0 0.0
2017-Aug-16 20:55N 37°48' W 122°24'0 0.0
2017-Aug-16 20:28N 37°48' W 122°24'0 0.0
2017-Aug-16 19:57N 37°48' W 122°24'0 0.0
2017-Aug-16 19:30N 37°48' W 122°24'0 0.0
2017-Aug-16 19:00N 37°48' W 122°24'0 0.0
2017-Aug-16 18:27N 37°48' W 122°24'0 0.0
2017-Aug-16 17:57N 37°48' W 122°24'0 0.0
2017-Aug-16 17:26N 37°48' W 122°24'0 0.0
2017-Aug-16 16:59N 37°48' W 122°24'0 0.0
2017-Aug-16 16:29N 37°48' W 122°24'0 0.0
2017-Aug-16 15:59N 37°48' W 122°24'0 0.0
2017-Aug-16 15:29N 37°48' W 122°24'0 0.8
2017-Aug-16 15:00N 37°48' W 122°24'019.8 260 / 31014.510.8 15.011.318.0
2017-Aug-16 14:58N 37°48' W 122°24'0 0.0
2017-Aug-16 14:28N 37°48' W 122°24'0 0.0
2017-Aug-16 13:58N 37°48' W 122°24'0 0.3
2017-Aug-16 13:30N 37°49' W 122°24'1 2.2
2017-Aug-16 13:00N 37°49' W 122°25'612.5
2017-Aug-16 12:30N 37°47' W 122°33'715.0
2017-Aug-16 12:00N 37°46' W 122°42'510.2
2017-Aug-16 11:30N 37°47' W 122°48'510.1
2017-Aug-16 11:00N 37°50' W 122°54'510.1
2017-Aug-16 10:30N 37°52' W 122°59'5 9.8
2017-Aug-16 10:00N 37°55' W 123°05'8480.4
2017-Aug-16 10:00N 37°48' W 123°00'1225.6 330 / 221012.910.8 13.512.613.0
2017-Aug-16 09:30N 37°57' W 123°10'510.0
2017-Aug-16 09:00N 38°01' W 123°15'5 9.9
2017-Aug-16 08:30N 38°05' W 123°19'510.0
2017-Aug-16 08:00N 38°09' W 123°23'713.8
2017-Aug-16 07:31N 38°15' W 123°27'918.2
2017-Aug-16 07:00N 38°22' W 123°34'917.6
2017-Aug-16 06:31N 38°29' W 123°40'1019.5
2017-Aug-16 06:00N 38°38' W 123°47'1120.1
2017-Aug-16 05:27N 38°47' W 123°54'4719.0
2017-Aug-16 03:00N 39°30' W 124°18'19521.4 340 / 221012.110.8 14.012.212.0
2017-Aug-15 17:54N 42°42' W 124°57'921.8
2017-Aug-15 17:30N 42°51' W 124°57'1121.5
2017-Aug-15 17:00N 43°02' W 124°58'1021.3
2017-Aug-15 16:30N 43°12' W 124°59'1222.6
2017-Aug-15 16:00N 43°24' W 125°00'17374.1 360 / 131014.410.8 15.013.215.0
2017-Aug-15 15:57N 43°41' W 125°01'0 0.2
2017-Aug-15 15:08N 43°41' W 125°01'321.2
2017-Aug-15 15:00N 43°44' W 125°01'1021.2
2017-Aug-15 14:30N 43°55' W 125°02'1 2.6
2017-Aug-15 14:00N 43°54' W 125°00'1221030.8 010 / 131014.310.8 15.013.215.0
2017-Aug-15 13:59N 44°06' W 125°02'1021.3
2017-Aug-15 13:30N 44°16' W 125°03'1621.8
2017-Aug-15 12:46N 44°32' W 125°04'622.2
2017-Aug-15 12:30N 44°38' W 125°05'1121.8
2017-Aug-15 12:00N 44°49' W 125°05'1121.3
2017-Aug-15 11:30N 44°60' W 125°07'1021.3
2017-Aug-15 11:00N 45°10' W 125°08'42129153.1
2017-Aug-15 11:00N 45°18' W 135°06'420863.5 010 / 161013.810.8 15.512.818.0
2017-Aug-15 10:30N 45°21' W 125°08'1121.4
2017-Aug-15 10:00N 45°31' W 125°08'1121.5
2017-Aug-15 09:30N 45°42' W 125°08'1121.4
2017-Aug-15 09:00N 45°53' W 125°09'1521.5
2017-Aug-15 08:18N 46°08' W 125°11'621.5
2017-Aug-15 08:00N 46°14' W 125°11'1121.5
2017-Aug-15 07:30N 46°25' W 125°12'1121.5
2017-Aug-15 07:00N 46°35' W 125°13'1121.6
2017-Aug-15 06:30N 46°46' W 125°14'1121.3
2017-Aug-15 06:00N 46°57' W 125°15'1021.0
2017-Aug-15 05:30N 47°07' W 125°15'1220.9
2017-Aug-15 04:57N 47°19' W 125°16'920.4
2017-Aug-15 04:30N 47°28' W 125°17'1121.3
2017-Aug-15 04:00N 47°39' W 125°18'1020.1
2017-Aug-15 03:30N 47°49' W 125°18'1019.6
2017-Aug-15 03:00N 47°58' W 125°19'1019.3
2017-Aug-15 02:30N 48°08' W 125°15'1019.1
2017-Aug-15 02:00N 48°17' W 125°11'1019.3
2017-Aug-15 01:29N 48°26' W 125°05'817.3
2017-Aug-15 01:00N 48°31' W 124°55'1019.2
2017-Aug-15 00:30N 48°30' W 124°41'1019.3
2017-Aug-15 00:00N 48°26' W 124°27'1019.6
2017-Aug-14 23:30N 48°22' W 124°14'1019.7
2017-Aug-14 23:00N 48°19' W 123°60'14845.6
2017-Aug-14 23:00N 48°12' W 123°42'510.7 250 / 151014.510.8 16.010.312.0
2017-Aug-14 22:30N 48°17' W 123°45'1020.3
2017-Aug-14 22:00N 48°17' W 123°30'815.5
2017-Aug-14 21:31N 48°23' W 123°25'2 3.6
2017-Aug-14 20:59N 48°25' W 123°23'0 0.0
2017-Aug-14 20:29N 48°25' W 123°23'0 0.0
2017-Aug-14 19:59N 48°25' W 123°23'0 0.0
2017-Aug-14 19:29N 48°25' W 123°23'0 0.0
2017-Aug-14 18:59N 48°25' W 123°23'0 0.0
2017-Aug-14 18:28N 48°25' W 123°23'0 0.0
2017-Aug-14 17:58N 48°25' W 123°23'0 0.0
2017-Aug-14 17:28N 48°25' W 123°23'0 0.0
2017-Aug-14 16:58N 48°25' W 123°23'0 0.0
2017-Aug-14 16:30N 48°25' W 123°23'0 0.0
2017-Aug-14 16:00N 48°25' W 123°23'0 0.0
2017-Aug-14 15:30N 48°25' W 123°23'0 0.0
2017-Aug-14 14:57N 48°25' W 123°23'0 0.0
2017-Aug-14 14:30N 48°25' W 123°23'0 0.0
2017-Aug-14 13:59N 48°25' W 123°23'1 1.6
2017-Aug-14 13:31N 48°25' W 123°24'5 9.1
2017-Aug-14 13:00N 48°20' W 123°24'815.8
2017-Aug-14 12:30N 48°14' W 123°31'916.9
2017-Aug-14 12:00N 48°14' W 123°44'816.4
2017-Aug-14 11:30N 48°14' W 123°56'1019.4
2017-Aug-14 11:00N 48°18' W 124°10'919.1
2017-Aug-14 10:30N 48°22' W 124°23'918.5
2017-Aug-14 10:00N 48°26' W 124°35'917.8
2017-Aug-14 09:30N 48°29' W 124°48'1018.6
2017-Aug-14 08:59N 48°29' W 125°03'918.7
2017-Aug-14 08:30N 48°29' W 125°16'1019.2
2017-Aug-14 08:00N 48°32' W 125°30'1019.5
2017-Aug-14 07:30N 48°39' W 125°41'1020.5
2017-Aug-14 07:00N 48°45' W 125°53'1121.0
2017-Aug-14 06:30N 48°51' W 126°06'1121.2
2017-Aug-14 06:00N 48°58' W 126°19'6347.6
2017-Aug-14 06:00N 48°54' W 126°12'1734.2 290 / 15 10.8 13.511.614.0
2017-Aug-14 05:30N 49°04' W 126°32'5622.1
2017-Aug-14 03:00N 49°36' W 127°42'8621.5 300 / 121018.510.8 14.512.714.0
2017-Aug-13 23:00N 50°36' W 129°18'9716.2 270 / 121016.9 5.4 16.013.315.0
2017-Aug-13 17:00N 51°42' W 131°12'17217.2 250 / 191009.4 5.4 14.012.215.0
2017-Aug-13 07:00N 54°06' W 133°48'6716.9 230 / 21999.210.8 13.011.114.0
2017-Aug-13 03:00N 55°12' W 134°12'6616.6 130 / 15995.6 5.4 13.212.514.0
2017-Aug-12 23:00N 56°18' W 134°24'103 9.3 110 / 19997.9 2.2 13.013.011.0
2017-Aug-12 12:00N 58°00' W 134°00'7615.2 170 / 51005.5 5.4 13.012.110.0
2017-Aug-12 07:00N 59°06' W 135°12'6 0.3 130 / 211007.4 5.4 18.013.613.0
2017-Aug-11 11:00N 59°00' W 135°12'5313.2 350 / 81011.810.8 14.511.714.0
2017-Aug-11 07:00N 58°12' W 134°30'6 0.4 240 / 61017.510.8 14.512.711.0
2017-Aug-10 16:00N 58°12' W 134°18'5511.1 220 / 21017.510.8 14.512.711.0
2017-Aug-10 11:00N 57°18' W 133°54'   040 / 81016.010.8 15.011.311.0

Dump ship's entire track history